Time;durP1;ratioP1;P1;durP2;ratioP2;P2;SDS_P1;SDS_P2;PMS_P1;PMS_P2;Temp;Humidity;BMP_temperature;BMP_pressure;BME280_temperature;BME280_humidity;BME280_pressure;Samples;Min_cycle;Max_cycle;Signal;HPM_P1;HPM_P2
2023/08/01 00:01:54;;;;;;;;;;;;;;;25.75;44.69;96307.47;4235449;28;5658;-66
2023/08/01 00:03:57;;;;;;;;;;;;;;;25.74;44.79;96303.16;4235541;28;5651;-65
2023/08/01 00:06:00;;;;;;;;;;;;;;;25.74;44.71;96286.91;4235011;27;5669;-66
2023/08/01 00:08:03;;;;;;;;;;;;;;;25.73;44.46;96282.59;4235353;28;5654;-66
2023/08/01 00:10:06;;;;;;;;;;;;;;;25.74;44.76;96281.50;4227067;28;5679;-66
2023/08/01 00:12:10;;;;;;;;;;;;;;;25.73;44.88;96277.19;4228954;27;5819;-66
2023/08/01 00:14:13;;;;;;;;;;;;;;;25.73;44.76;96269.06;4227880;28;5833;-65
2023/08/01 00:16:17;;;;;;;;;;;;;;;25.73;44.81;96269.06;4233618;28;5666;-64
2023/08/01 00:18:19;;;;;;;;;;;;;;;25.73;44.90;96263.66;4235299;28;5613;-65
2023/08/01 00:20:24;;;;;;;;;;;;;;;25.72;44.48;96260.13;4235360;28;5647;-65
2023/08/01 00:22:27;;;;;;;;;;;;;;;25.72;44.63;96254.72;4235165;28;5655;-65
2023/08/01 00:24:30;;;;;;;;;;;;;;;25.72;44.43;96249.31;4235075;28;5643;-65
2023/08/01 00:26:33;;;;;;;;;;;;;;;25.73;44.88;96247.41;4234585;28;5830;-65
2023/08/01 00:28:36;;;;;;;;;;;;;;;25.72;44.57;96252.03;4234297;27;5749;-65
2023/08/01 00:30:38;;;;;;;;;;;;;;;25.73;44.74;96242.00;4234784;28;5729;-64
2023/08/01 00:32:43;;;;;;;;;;;;;;;25.72;45.06;96248.50;4226382;28;5605;-65
2023/08/01 00:34:46;;;;;;;;;;;;;;;25.72;44.86;96252.03;4234824;27;5606;-65
2023/08/01 00:36:50;;;;;;;;;;;;;;;25.73;44.71;96252.81;4234590;28;5654;-65
2023/08/01 00:38:52;;;;;;;;;;;;;;;25.72;44.70;96249.31;4234769;28;5768;-65
2023/08/01 00:40:55;;;;;;;;;;;;;;;25.73;45.13;96247.41;4234795;27;5758;-64
2023/08/01 00:42:58;;;;;;;;;;;;;;;25.73;45.19;96245.50;4234846;28;5721;-65
2023/08/01 00:45:01;;;;;;;;;;;;;;;25.73;45.32;96239.28;4234363;28;5650;-65
2023/08/01 00:47:05;;;;;;;;;;;;;;;25.74;45.04;96227.34;4227103;28;5770;-65
2023/08/01 00:49:11;;;;;;;;;;;;;;;25.72;45.59;96224.94;4234852;27;5764;-65
2023/08/01 00:51:14;;;;;;;;;;;;;;;25.73;45.62;96221.13;4225960;28;5787;-65
2023/08/01 00:53:18;;;;;;;;;;;;;;;25.73;45.63;96226.56;4234584;27;5642;-65
2023/08/01 00:55:23;;;;;;;;;;;;;;;25.73;45.79;96220.34;4234451;27;5605;-65
2023/08/01 00:57:26;;;;;;;;;;;;;;;25.73;45.65;96217.63;4234616;28;5761;-65
2023/08/01 00:59:28;;;;;;;;;;;;;;;25.73;45.71;96209.50;4234446;28;5662;-65
2023/08/01 01:01:31;;;;;;;;;;;;;;;25.71;46.07;96209.00;4234467;28;5606;-65
2023/08/01 01:03:34;;;;;;;;;;;;;;;25.69;45.81;96205.75;4228777;28;5658;-64
2023/08/01 01:05:48;;;;;;;;;;;;;;;25.70;46.24;96200.06;4234109;28;5896;-65
2023/08/01 01:07:52;;;;;;;;;;;;;;;25.71;45.94;96199.00;4234547;28;5634;-65
2023/08/01 01:09:54;;;;;;;;;;;;;;;25.70;46.14;96193.84;4234490;27;5654;-65
2023/08/01 01:11:56;;;;;;;;;;;;;;;25.71;45.73;96190.03;4234376;28;5646;-65
2023/08/01 01:13:59;;;;;;;;;;;;;;;25.69;46.18;96184.94;4234244;28;5625;-66
2023/08/01 01:16:03;;;;;;;;;;;;;;;25.70;45.97;96193.84;4234053;27;5803;-66
2023/08/01 01:18:05;;;;;;;;;;;;;;;25.69;45.81;96186.81;4226190;28;5099;-65
2023/08/01 01:20:09;;;;;;;;;;;;;;;25.68;45.96;96185.22;4228141;28;5726;-65
2023/08/01 01:22:15;;;;;;;;;;;;;;;25.68;45.93;96199.53;4233964;28;5658;-65
2023/08/01 01:24:28;;;;;;;;;;;;;;;25.70;46.04;96199.25;4232866;27;7141;-65
2023/08/01 01:26:33;;;;;;;;;;;;;;;25.69;46.31;96203.88;4234097;28;5642;-65
2023/08/01 01:28:37;;;;;;;;;;;;;;;25.69;46.03;96189.50;4234018;28;5666;-65
2023/08/01 01:30:42;;;;;;;;;;;;;;;25.70;45.79;96196.56;4234165;27;5749;-65
2023/08/01 01:32:45;;;;;;;;;;;;;;;25.70;46.13;96189.25;4234246;28;5100;-65
2023/08/01 01:34:48;;;;;;;;;;;;;;;25.70;46.43;96183.03;4233991;28;5858;-65
2023/08/01 01:36:50;;;;;;;;;;;;;;;25.69;46.45;96182.22;4229588;28;5823;-66
2023/08/01 01:38:55;;;;;;;;;;;;;;;25.69;46.45;96181.41;4232673;28;5642;-66
2023/08/01 01:40:58;;;;;;;;;;;;;;;25.70;46.14;96185.72;4233582;28;5908;-66
2023/08/01 01:43:00;;;;;;;;;;;;;;;25.68;46.20;96187.91;4234189;28;5662;-66
2023/08/01 01:45:04;;;;;;;;;;;;;;;25.68;46.17;96185.22;4233519;28;5609;-66
2023/08/01 01:47:07;;;;;;;;;;;;;;;25.67;46.64;96172.78;4233769;28;5658;-66
2023/08/01 01:49:10;;;;;;;;;;;;;;;25.66;46.28;96180.09;4233929;28;5663;-66
2023/08/01 01:51:12;;;;;;;;;;;;;;;25.66;46.46;96177.41;4226335;28;5855;-66
2023/08/01 01:53:15;;;;;;;;;;;;;;;25.64;46.12;96176.91;4233940;28;5655;-66
2023/08/01 01:55:20;;;;;;;;;;;;;;;25.62;46.40;96176.41;4228300;27;5785;-66
2023/08/01 01:57:22;;;;;;;;;;;;;;;25.61;46.28;96182.94;4233994;28;6514;-66
2023/08/01 01:59:25;;;;;;;;;;;;;;;25.61;46.01;96196.47;4234026;28;5654;-66
2023/08/01 02:01:28;;;;;;;;;;;;;;;25.60;45.81;96183.25;4233894;28;6498;-66
2023/08/01 02:03:31;;;;;;;;;;;;;;;25.57;45.85;96181.91;4233615;28;5737;-66
2023/08/01 02:05:34;;;;;;;;;;;;;;;25.56;45.64;96174.91;4233646;28;5766;-66
2023/08/01 02:07:37;;;;;;;;;;;;;;;25.55;45.75;96176.81;4224109;28;5658;-66
2023/08/01 02:09:40;;;;;;;;;;;;;;;25.57;45.71;96178.41;4233754;28;5655;-65
2023/08/01 02:11:44;;;;;;;;;;;;;;;25.57;45.46;96168.38;4228256;28;5737;-66
2023/08/01 02:13:47;;;;;;;;;;;;;;;25.57;45.42;96179.22;4233961;28;5952;-65
2023/08/01 02:15:49;;;;;;;;;;;;;;;25.58;45.34;96174.59;4233752;28;5639;-66
2023/08/01 02:17:52;;;;;;;;;;;;;;;25.57;44.75;96179.22;4233639;28;5927;-66
2023/08/01 02:19:56;;;;;;;;;;;;;;;25.58;44.69;96174.59;4233940;28;5658;-65
2023/08/01 02:21:59;;;;;;;;;;;;;;;25.58;44.77;96182.72;4233633;28;5631;-66
2023/08/01 02:24:02;;;;;;;;;;;;;;;25.58;44.92;96180.00;4233689;28;5658;-65
2023/08/01 02:26:08;;;;;;;;;;;;;;;25.58;44.93;96171.91;4216815;28;5770;-65
2023/08/01 02:28:12;;;;;;;;;;;;;;;25.58;44.84;96175.41;4227932;28;5671;-66
2023/08/01 02:30:15;;;;;;;;;;;;;;;25.59;44.78;96171.59;4233738;28;5663;-66
2023/08/01 02:32:18;;;;;;;;;;;;;;;25.59;44.49;96165.38;4233619;28;5642;-66
2023/08/01 02:34:21;;;;;;;;;;;;;;;25.59;44.28;96174.28;4233633;28;5786;-66
2023/08/01 02:36:24;;;;;;;;;;;;;;;25.59;44.40;96165.38;4233132;28;5675;-66
2023/08/01 02:38:26;;;;;;;;;;;;;;;25.62;44.02;96159.38;4233524;28;6344;-65
2023/08/01 02:40:29;;;;;;;;;;;;;;;25.61;43.90;96158.56;4233418;27;5654;-66
2023/08/01 02:42:32;;;;;;;;;;;;;;;25.62;44.33;96159.38;4233526;28;5625;-65
2023/08/01 02:44:36;;;;;;;;;;;;;;;25.61;43.99;96153.16;4232470;28;5650;-65
2023/08/01 02:46:39;;;;;;;;;;;;;;;25.62;43.63;96156.66;4233335;28;5657;-66
2023/08/01 02:48:42;;;;;;;;;;;;;;;25.64;44.17;96159.88;4233582;28;5625;-66
2023/08/01 02:50:45;;;;;;;;;;;;;;;25.65;43.88;96148.72;4233318;28;6335;-67
2023/08/01 02:52:48;;;;;;;;;;;;;;;25.66;43.68;96139.50;4233767;28;5642;-66
2023/08/01 02:54:51;;;;;;;;;;;;;;;25.67;43.96;96141.09;4235394;27;5681;-66
2023/08/01 02:56:54;;;;;;;;;;;;;;;25.67;43.85;96141.09;4236313;28;5725;-66
2023/08/01 02:58:57;;;;;;;;;;;;;;;25.68;43.55;96140.00;4236517;28;5100;-66
2023/08/01 03:01:01;;;;;;;;;;;;;;;25.69;43.73;96138.91;4236225;28;5621;-66
2023/08/01 03:03:04;;;;;;;;;;;;;;;25.70;43.69;96128.88;4222173;27;5659;-65
2023/08/01 03:05:07;;;;;;;;;;;;;;;25.71;43.69;96125.91;4228472;28;5666;-66
2023/08/01 03:07:10;;;;;;;;;;;;;;;25.71;44.13;96120.47;4236240;27;5614;-66
2023/08/01 03:09:13;;;;;;;;;;;;;;;25.73;43.89;96125.59;4236363;28;5643;-65
2023/08/01 03:11:15;;;;;;;;;;;;;;;25.74;44.28;96119.06;4236397;28;5662;-66
2023/08/01 03:13:18;;;;;;;;;;;;;;;25.76;44.11;96130.38;4236085;28;5654;-66
2023/08/01 03:15:20;;;;;;;;;;;;;;;25.75;43.65;96124.16;4235909;28;5638;-65
2023/08/01 03:17:25;;;;;;;;;;;;;;;25.77;43.96;96132.78;4236236;28;5654;-66
2023/08/01 03:19:28;;;;;;;;;;;;;;;25.78;44.39;96125.47;4230425;28;5658;-66
2023/08/01 03:21:32;;;;;;;;;;;;;;;25.76;44.34;96125.78;4235980;28;6639;-65
2023/08/01 03:23:35;;;;;;;;;;;;;;;25.77;44.28;96129.28;4235948;28;5666;-66
2023/08/01 03:25:37;;;;;;;;;;;;;;;25.77;44.14;96146.31;4235687;28;6345;-65
2023/08/01 03:27:40;;;;;;;;;;;;;;;25.78;44.23;96136.28;4236031;27;5639;-66
2023/08/01 03:29:43;;;;;;;;;;;;;;;25.76;44.02;96149.34;4234819;28;6278;-66
2023/08/01 03:31:46;;;;;;;;;;;;;;;25.77;44.39;96151.72;4236128;27;5654;-66
2023/08/01 03:33:49;;;;;;;;;;;;;;;25.77;44.32;96140.09;4235919;28;5448;-65
2023/08/01 03:35:52;;;;;;;;;;;;;;;25.77;44.18;96138.19;4231540;28;5754;-64
2023/08/01 03:37:55;;;;;;;;;;;;;;;25.77;44.33;96131.97;4234700;28;5801;-66
2023/08/01 03:39:58;;;;;;;;;;;;;;;25.79;43.85;96129.75;4235962;28;5635;-65
2023/08/01 03:42:02;;;;;;;;;;;;;;;25.78;44.14;96126.25;4235710;28;5702;-66
2023/08/01 03:44:05;;;;;;;;;;;;;;;25.79;44.28;96127.06;4235681;28;5655;-66
2023/08/01 03:46:08;;;;;;;;;;;;;;;25.80;43.98;96124.03;4235570;27;5613;-66
2023/08/01 03:48:11;;;;;;;;;;;;;;;25.80;43.90;96123.25;4235610;28;5605;-66
2023/08/01 03:50:16;;;;;;;;;;;;;;;25.81;43.72;96119.44;4235629;28;5812;-66
2023/08/01 03:52:19;;;;;;;;;;;;;;;25.81;43.98;96112.09;4235490;28;5717;-66
2023/08/01 03:54:22;;;;;;;;;;;;;;;25.82;44.04;96110.19;4230348;28;5920;-66
2023/08/01 03:56:23;;;;;;;;;;;;;;;25.83;43.69;96106.41;4235480;28;5757;-65
2023/08/01 03:58:26;;;;;;;;;;;;;;;25.83;44.07;96101.00;4235503;28;5642;-65
2023/08/01 04:00:32;;;;;;;;;;;;;;;25.86;43.95;96094.16;4232123;27;5683;-65
2023/08/01 04:02:35;;;;;;;;;;;;;;;25.83;43.71;96090.97;4231759;28;5767;-65
2023/08/01 04:04:38;;;;;;;;;;;;;;;25.83;43.79;96085.53;4235465;27;8553;-65
2023/08/01 04:06:42;;;;;;;;;;;;;;;25.82;44.01;96088.53;4235341;28;5802;-65
2023/08/01 04:08:45;;;;;;;;;;;;;;;25.84;44.11;96086.34;4235292;28;5734;-64
2023/08/01 04:10:50;;;;;;;;;;;;;;;25.84;44.25;96086.34;4229416;28;5092;-64
2023/08/01 04:12:53;;;;;;;;;;;;;;;25.83;44.07;96090.97;4235225;28;5753;-64
2023/08/01 04:14:55;;;;;;;;;;;;;;;25.85;43.67;96098.78;4233543;28;5629;-65
2023/08/01 04:16:59;;;;;;;;;;;;;;;25.85;43.95;96097.97;4235121;28;5647;-65
2023/08/01 04:19:01;;;;;;;;;;;;;;;25.85;44.06;96092.56;4235159;27;5717;-65
2023/08/01 04:21:04;;;;;;;;;;;;;;;25.84;43.67;96091.75;4226602;28;5758;-65
2023/08/01 04:23:08;;;;;;;;;;;;;;;25.85;43.99;96093.34;4235168;28;5720;-66
2023/08/01 04:25:11;;;;;;;;;;;;;;;25.85;43.67;96098.78;4234983;28;5749;-65
2023/08/01 04:27:14;;;;;;;;;;;;;;;25.85;43.92;96104.19;4229105;28;5671;-65
2023/08/01 04:29:17;;;;;;;;;;;;;;;25.87;43.71;96107.38;4233841;28;5638;-65
2023/08/01 04:31:20;;;;;;;;;;;;;;;25.86;43.84;96104.97;4234883;28;5668;-65
2023/08/01 04:33:23;;;;;;;;;;;;;;;25.85;43.64;96106.09;4234970;27;5868;-65
2023/08/01 04:35:26;;;;;;;;;;;;;;;25.84;43.64;96091.75;4234826;28;5634;-65
2023/08/01 04:37:29;;;;;;;;;;;;;;;25.85;43.48;96100.69;4234760;28;5635;-65
2023/08/01 04:39:33;;;;;;;;;;;;;;;25.83;43.86;96096.38;4234836;28;5706;-65
2023/08/01 04:41:36;;;;;;;;;;;;;;;25.84;43.56;96110.72;4234850;28;5627;-65
2023/08/01 04:43:39;;;;;;;;;;;;;;;25.85;43.84;96115.00;4232268;28;5798;-65
2023/08/01 04:45:42;;;;;;;;;;;;;;;25.86;43.79;96113.09;4231513;28;5662;-65
2023/08/01 04:47:45;;;;;;;;;;;;;;;25.87;43.54;96123.63;4234637;27;5761;-65
2023/08/01 04:49:48;;;;;;;;;;;;;;;25.87;43.57;96134.47;4234656;27;5650;-65
2023/08/01 04:51:52;;;;;;;;;;;;;;;25.88;43.58;96117.09;4234334;28;5662;-65
2023/08/01 04:53:55;;;;;;;;;;;;;;;25.87;43.55;96112.78;4234576;28;5080;-65
2023/08/01 04:56:00;;;;;;;;;;;;;;;25.85;43.68;96115.00;4234581;28;5817;-65
2023/08/01 04:58:03;;;;;;;;;;;;;;;25.85;43.73;96122.34;4226042;28;5659;-65
2023/08/01 05:00:07;;;;;;;;;;;;;;;25.85;44.03;96123.13;4226244;28;5654;-66
2023/08/01 05:02:10;;;;;;;;;;;;;;;25.83;43.90;96128.88;4228576;28;5654;-65
2023/08/01 05:04:13;;;;;;;;;;;;;;;25.81;43.85;96132.97;4234331;27;6708;-65
2023/08/01 05:06:15;;;;;;;;;;;;;;;25.78;43.88;96130.88;4234305;28;5650;-65
2023/08/01 05:08:18;;;;;;;;;;;;;;;25.77;44.08;96123.84;4234398;28;5650;-65
2023/08/01 05:10:20;;;;;;;;;;;;;;;25.77;44.13;96129.28;4234398;28;5741;-65
2023/08/01 05:12:25;;;;;;;;;;;;;;;25.76;44.15;96122.25;4234458;28;5657;-66
2023/08/01 05:14:28;;;;;;;;;;;;;;;25.76;43.75;96111.44;4234238;28;5679;-66
2023/08/01 05:16:30;;;;;;;;;;;;;;;25.77;43.89;96107.63;4233013;28;5642;-66
2023/08/01 05:18:34;;;;;;;;;;;;;;;25.76;44.04;96104.13;4227360;28;5834;-65
2023/08/01 05:20:37;;;;;;;;;;;;;;;25.76;44.02;96100.59;4234011;28;5765;-65
2023/08/01 05:22:39;;;;;;;;;;;;;;;25.77;44.11;96100.28;4234282;27;5681;-65
2023/08/01 05:24:42;;;;;;;;;;;;;;;25.76;43.99;96084.38;4234408;28;5705;-66
2023/08/01 05:26:45;;;;;;;;;;;;;;;25.77;43.90;96094.09;4233838;27;5766;-65
2023/08/01 05:28:49;;;;;;;;;;;;;;;25.76;44.16;96108.72;4234144;28;6371;-63
2023/08/01 05:30:52;;;;;;;;;;;;;;;25.76;43.99;96101.41;4234009;28;5742;-64
2023/08/01 05:32:55;;;;;;;;;;;;;;;25.77;44.03;96103.00;4233979;28;5844;-64
2023/08/01 05:34:58;;;;;;;;;;;;;;;25.77;44.02;96091.38;4227487;28;5846;-65
2023/08/01 05:37:00;;;;;;;;;;;;;;;25.78;44.23;96087.56;4224844;28;5626;-64
2023/08/01 05:39:04;;;;;;;;;;;;;;;25.77;44.35;96089.47;4234010;28;5737;-65
2023/08/01 05:41:07;;;;;;;;;;;;;;;25.78;44.21;96092.97;4225905;28;5741;-65
2023/08/01 05:43:09;;;;;;;;;;;;;;;25.78;44.37;96082.16;4233838;28;5658;-64
2023/08/01 05:45:14;;;;;;;;;;;;;;;25.78;44.33;96088.34;4233905;27;5752;-64
2023/08/01 05:47:17;;;;;;;;;;;;;;;25.78;44.36;96095.69;4233890;28;5658;-64
2023/08/01 05:49:18;;;;;;;;;;;;;;;25.77;44.18;96080.53;4233936;28;5649;-64
2023/08/01 05:51:21;;;;;;;;;;;;;;;25.77;44.11;96086.75;4226151;28;5799;-64
2023/08/01 05:53:25;;;;;;;;;;;;;;;25.77;44.16;96094.88;4233699;28;5650;-65
2023/08/01 05:55:27;;;;;;;;;;;;;;;25.79;44.39;96105.41;4225650;28;5825;-64
2023/08/01 05:57:31;;;;;;;;;;;;;;;25.81;44.34;96105.88;4231738;28;5729;-65
2023/08/01 05:59:34;;;;;;;;;;;;;;;25.81;44.09;96100.47;4229636;28;5622;-64
2023/08/01 06:01:38;;;;;;;;;;;;;;;25.82;44.22;96088.53;4233647;28;5772;-65
2023/08/01 06:03:41;;;;;;;;;;;;;;;25.82;44.43;96085.81;4232349;28;5621;-64
2023/08/01 06:05:44;;;;;;;;;;;;;;;25.81;44.09;96093.16;4233352;28;5601;-64
2023/08/01 06:07:47;;;;;;;;;;;;;;;25.79;44.50;96095.38;4233385;28;6012;-65
2023/08/01 06:09:51;;;;;;;;;;;;;;;25.80;44.20;96096.16;4227602;27;5662;-65
2023/08/01 06:11:54;;;;;;;;;;;;;;;25.78;44.39;96093.78;4233848;27;5630;-64
2023/08/01 06:13:57;;;;;;;;;;;;;;;25.77;44.42;96096.78;4227758;28;6352;-65
2023/08/01 06:15:59;;;;;;;;;;;;;;;25.77;44.53;96096.78;4225535;28;5678;-65
2023/08/01 06:18:03;;;;;;;;;;;;;;;25.76;44.59;96111.44;4224883;28;5103;-65
2023/08/01 06:20:08;;;;;;;;;;;;;;;25.75;45.02;96101.72;4225484;28;5630;-65
2023/08/01 06:22:11;;;;;;;;;;;;;;;25.72;44.99;96113.97;4233018;28;5642;-65
2023/08/01 06:24:13;;;;;;;;;;;;;;;25.71;45.11;96125.91;4233035;28;5722;-65
2023/08/01 06:26:16;;;;;;;;;;;;;;;25.70;44.84;96126.97;4226627;28;5670;-64
2023/08/01 06:28:19;;;;;;;;;;;;;;;25.69;45.20;96127.25;4235290;28;5678;-72
2023/08/01 06:30:22;;;;;;;;;;;;;;;25.67;45.36;96134.88;4229390;27;5829;-77
2023/08/01 06:32:25;;;;;;;;;;;;;;;25.65;45.06;96124.38;4233994;28;5798;-76
2023/08/01 06:34:30;;;;;;;;;;;;;;;25.62;45.42;96137.72;4230604;28;5638;-77
2023/08/01 06:36:33;;;;;;;;;;;;;;;25.61;45.22;96142.34;4236830;27;5832;-77
2023/08/01 06:38:35;;;;;;;;;;;;;;;25.58;45.31;96134.00;4225650;28;5714;-77
2023/08/01 06:40:38;;;;;;;;;;;;;;;25.53;45.32;96145.75;4222085;28;5655;-77
2023/08/01 06:42:42;;;;;;;;;;;;;;;25.48;45.08;96146.69;4227620;28;5745;-77
2023/08/01 06:44:47;;;;;;;;;;;;;;;25.46;45.44;96145.34;4229192;27;5654;-77
2023/08/01 06:46:50;;;;;;;;;;;;;;;25.43;44.94;96157.59;4225591;28;6384;-79
2023/08/01 06:48:53;;;;;;;;;;;;;;;25.40;44.89;96171.75;4227266;28;6493;-80
2023/08/01 06:50:56;;;;;;;;;;;;;;;25.36;44.93;96188.84;4227502;28;5874;-77
2023/08/01 06:53:00;;;;;;;;;;;;;;;25.34;44.71;96185.66;4227879;28;5770;-77
2023/08/01 06:55:04;;;;;;;;;;;;;;;25.31;44.45;96195.19;4218962;27;5840;-80
2023/08/01 06:57:06;;;;;;;;;;;;;;;25.29;44.37;96208.22;4219291;28;5671;-80
2023/08/01 06:59:09;;;;;;;;;;;;;;;25.27;44.76;96215.03;4220189;28;5655;-81
2023/08/01 07:01:12;;;;;;;;;;;;;;;25.23;44.36;96223.72;4235217;28;5770;-81
2023/08/01 07:03:15;;;;;;;;;;;;;;;25.22;44.43;96232.16;4224388;27;5665;-77
2023/08/01 07:05:17;;;;;;;;;;;;;;;25.18;44.33;96247.38;4236229;28;5654;-80
2023/08/01 07:07:23;;;;;;;;;;;;;;;25.11;44.74;96252.38;4236362;28;5724;-81
2023/08/01 07:09:26;;;;;;;;;;;;;;;25.07;44.52;96245.97;4226026;27;5720;-82
2023/08/01 07:11:29;;;;;;;;;;;;;;;25.03;44.18;96242.25;4234848;28;5670;-84
2023/08/01 07:13:33;;;;;;;;;;;;;;;25.00;44.40;96240.91;4225313;28;5916;-83
2023/08/01 07:15:35;;;;;;;;;;;;;;;24.98;44.60;96235.81;4218413;28;5798;-84
2023/08/01 07:17:38;;;;;;;;;;;;;;;24.97;44.71;96233.41;4228764;28;5754;-83
2023/08/01 07:19:42;;;;;;;;;;;;;;;24.92;44.47;96223.50;4223848;28;5770;-81
2023/08/01 07:21:47;;;;;;;;;;;;;;;24.92;44.70;96220.78;4223038;28;5671;-82
2023/08/01 07:23:52;;;;;;;;;;;;;;;24.91;44.34;96226.47;4221060;28;5679;-64
2023/08/01 07:25:55;;;;;;;;;;;;;;;24.88;44.35;96210.84;4227166;28;5767;-64
2023/08/01 07:27:58;;;;;;;;;;;;;;;24.89;44.70;96202.44;4218017;28;5890;-65
2023/08/01 07:30:01;;;;;;;;;;;;;;;24.90;44.83;96204.03;4220912;28;6324;-64
2023/08/01 07:32:05;;;;;;;;;;;;;;;24.93;44.54;96198.06;4229327;28;5811;-65
2023/08/01 07:34:08;;;;;;;;;;;;;;;24.91;44.62;96197.53;4229717;28;5663;-65
2023/08/01 07:36:11;;;;;;;;;;;;;;;24.93;44.30;96199.97;4232732;28;5668;-65
2023/08/01 07:38:14;;;;;;;;;;;;;;;24.94;44.46;96201.56;4234824;28;5654;-66
2023/08/01 07:40:18;;;;;;;;;;;;;;;24.92;44.79;96201.88;4228275;28;5724;-65
2023/08/01 07:42:21;;;;;;;;;;;;;;;24.93;44.70;96202.66;4226809;28;5802;-65
2023/08/01 07:44:24;;;;;;;;;;;;;;;24.94;44.85;96215.09;4229048;28;5741;-65
2023/08/01 07:46:27;;;;;;;;;;;;;;;24.94;44.53;96209.69;4225075;28;5712;-72
2023/08/01 07:48:30;;;;;;;;;;;;;;;24.97;45.15;96211.78;4236227;28;5624;-73
2023/08/01 07:50:33;;;;;;;;;;;;;;;25.00;45.23;96204.97;4234869;28;5642;-72
2023/08/01 07:52:36;;;;;;;;;;;;;;;25.01;44.83;96198.44;4235307;28;5634;-67
2023/08/01 07:54:39;;;;;;;;;;;;;;;25.04;45.24;96204.13;4229201;28;5692;-71
2023/08/01 07:56:43;;;;;;;;;;;;;;;25.04;45.25;96201.41;4225698;28;5653;-77
2023/08/01 07:58:46;;;;;;;;;;;;;;;25.06;45.48;96196.50;4231917;28;5650;-70
2023/08/01 08:00:49;;;;;;;;;;;;;;;25.08;45.26;96196.19;4229049;27;6376;-71
2023/08/01 08:02:52;;;;;;;;;;;;;;;25.07;45.46;96194.59;4232335;28;5704;-71
2023/08/01 08:04:55;;;;;;;;;;;;;;;25.09;45.62;96189.69;4222171;27;5794;-71
2023/08/01 08:06:59;;;;;;;;;;;;;;;25.09;45.82;96195.88;4226061;28;5786;-71
2023/08/01 08:09:03;;;;;;;;;;;;;;;25.08;45.70;96191.59;4229667;27;7473;-71
2023/08/01 08:11:05;;;;;;;;;;;;;;;25.09;45.83;96193.19;4227135;28;5711;-71
2023/08/01 08:13:09;;;;;;;;;;;;;;;25.10;45.54;96183.97;4231470;28;5687;-74
2023/08/01 08:15:13;;;;;;;;;;;;;;;25.09;45.03;96181.56;4232749;27;5906;-74
2023/08/01 08:17:16;;;;;;;;;;;;;;;25.10;45.04;96183.16;4225484;28;5671;-74
2023/08/01 08:19:19;;;;;;;;;;;;;;;25.11;45.14;96182.06;4225011;28;5642;-76
2023/08/01 08:21:22;;;;;;;;;;;;;;;25.14;44.68;96181.44;4229589;28;5796;-78
2023/08/01 08:23:25;;;;;;;;;;;;;;;25.15;44.95;96185.78;4235007;27;5634;-78
2023/08/01 08:25:27;;;;;;;;;;;;;;;25.17;44.40;96181.69;4229446;27;5739;-77
2023/08/01 08:27:30;;;;;;;;;;;;;;;25.16;44.56;96190.91;4230352;28;5769;-78
2023/08/01 08:29:35;;;;;;;;;;;;;;;25.17;44.54;96197.09;4225672;28;5840;-78
2023/08/01 08:31:37;;;;;;;;;;;;;;;25.20;44.78;96199.19;4225982;27;5866;-78
2023/08/01 08:33:41;;;;;;;;;;;;;;;25.24;44.61;96195.56;4228067;28;5770;-77
2023/08/01 08:35:43;;;;;;;;;;;;;;;25.26;44.77;96195.31;4229758;28;5672;-78
2023/08/01 08:37:46;;;;;;;;;;;;;;;25.27;44.49;96202.31;4216675;27;5870;-75
2023/08/01 08:39:49;;;;;;;;;;;;;;;25.27;44.47;96194.19;4230054;28;5639;-74
2023/08/01 08:41:53;;;;;;;;;;;;;;;25.28;44.27;96193.09;4222710;27;5778;-74
2023/08/01 08:43:57;;;;;;;;;;;;;;;25.29;44.02;96194.69;4225494;28;5727;-67
2023/08/01 08:46:05;;;;;;;;;;;;;;;25.33;44.15;96197.59;4232112;28;5838;-69
2023/08/01 08:48:12;;;;;;;;;;;;;;;25.36;44.19;96205.09;4228878;28;5761;-72
2023/08/01 08:50:15;;;;;;;;;;;;;;;25.36;44.29;96200.47;4230940;28;5658;-69
2023/08/01 08:52:19;;;;;;;;;;;;;;;25.38;44.04;96192.88;4229234;28;5666;-73
2023/08/01 08:54:22;;;;;;;;;;;;;;;25.40;43.96;96206.13;4231055;27;6332;-71
2023/08/01 08:56:25;;;;;;;;;;;;;;;25.41;44.14;96194.97;4225824;28;5642;-70
2023/08/01 08:58:29;;;;;;;;;;;;;;;25.41;44.10;96197.69;4222844;27;6475;-74
2023/08/01 09:00:31;;;;;;;;;;;;;;;25.43;43.96;96190.06;4229747;28;5642;-69
2023/08/01 09:02:36;;;;;;;;;;;;;;;25.44;43.89;96188.16;4231013;27;5679;-70
2023/08/01 09:04:39;;;;;;;;;;;;;;;25.45;44.02;96198.69;4225707;28;5650;-67
2023/08/01 09:06:46;;;;;;;;;;;;;;;25.45;44.09;96197.88;4233876;28;5678;-73
2023/08/01 09:09:04;;;;;;;;;;;;;;;25.43;44.38;96190.06;4234095;28;5708;-66
2023/08/01 09:11:07;;;;;;;;;;;;;;;25.45;44.56;96195.97;4226503;28;5733;-67
2023/08/01 09:13:10;;;;;;;;;;;;;;;25.47;44.64;96191.06;4230317;28;6551;-65
2023/08/01 09:15:14;;;;;;;;;;;;;;;25.52;44.38;96193.66;4222515;28;5854;-64
2023/08/01 09:17:18;;;;;;;;;;;;;;;25.56;44.20;96196.56;4219572;27;5679;-67
2023/08/01 09:19:24;;;;;;;;;;;;;;;25.58;44.61;96191.63;4233673;28;5639;-65
2023/08/01 09:21:28;;;;;;;;;;;;;;;25.59;44.57;96200.56;4231458;28;5773;-67
2023/08/01 09:23:31;;;;;;;;;;;;;;;25.61;44.57;96201.88;4228554;28;6267;-73
2023/08/01 09:25:35;;;;;;;;;;;;;;;25.62;44.63;96208.09;4226797;27;5740;-73
2023/08/01 09:27:38;;;;;;;;;;;;;;;25.62;44.99;96195.38;4231714;28;5650;-71
2023/08/01 09:29:41;;;;;;;;;;;;;;;25.65;45.13;96207.47;4223292;28;5766;-69
2023/08/01 09:31:45;;;;;;;;;;;;;;;25.66;44.85;96200.97;4223249;28;5709;-71
2023/08/01 09:33:47;;;;;;;;;;;;;;;25.66;44.93;96199.06;4230224;28;5718;-69
2023/08/01 09:35:52;;;;;;;;;;;;;;;25.67;45.29;96194.44;4233917;28;5776;-70
2023/08/01 09:37:57;;;;;;;;;;;;;;;25.69;45.22;96186.81;4231258;28;5646;-68
2023/08/01 09:40:00;;;;;;;;;;;;;;;25.72;45.16;96191.66;4233899;28;5981;-75
2023/08/01 09:42:03;;;;;;;;;;;;;;;25.73;45.25;96182.44;4225664;27;7690;-73
2023/08/01 09:44:06;;;;;;;;;;;;;;;25.75;45.34;96180.22;4224424;28;5671;-72
2023/08/01 09:46:09;;;;;;;;;;;;;;;25.76;45.73;96179.13;4232467;28;5927;-70
2023/08/01 09:48:23;;;;;;;;;;;;;;;25.77;45.60;96178.81;4229078;28;5651;-72
2023/08/01 09:50:26;;;;;;;;;;;;;;;25.80;45.64;96182.81;4230138;27;5672;-74
2023/08/01 09:52:29;;;;;;;;;;;;;;;25.81;45.80;96195.22;4222889;28;5794;-75
2023/08/01 09:54:32;;;;;;;;;;;;;;;25.79;45.94;96183.91;4220198;28;5761;-69
2023/08/01 09:56:35;;;;;;;;;;;;;;;25.79;46.35;96183.91;4222919;28;5642;-78
2023/08/01 09:58:39;;;;;;;;;;;;;;;25.81;46.36;96185.19;4229962;28;5655;-73
2023/08/01 10:00:43;;;;;;;;;;;;;;;25.83;46.23;96188.44;4219619;28;5100;-73
2023/08/01 10:02:47;;;;;;;;;;;;;;;25.84;46.46;96183.81;4224285;28;5931;-69
2023/08/01 10:04:50;;;;;;;;;;;;;;;25.84;46.19;96178.41;4229572;27;5766;-73
2023/08/01 10:06:58;;;;;;;;;;;;;;;25.85;46.03;96180.00;4229344;28;5650;-74
2023/08/01 10:09:03;;;;;;;;;;;;;;;25.85;45.86;96182.72;4232159;28;5688;-70
2023/08/01 10:11:06;;;;;;;;;;;;;;;25.86;46.00;96181.59;4222569;28;5660;-69
2023/08/01 10:13:10;;;;;;;;;;;;;;;25.88;45.92;96184.00;4229749;28;5684;-69
2023/08/01 10:15:13;;;;;;;;;;;;;;;25.90;45.59;96181.78;4223682;28;5830;-69
2023/08/01 10:17:18;;;;;;;;;;;;;;;25.90;45.80;96188.00;4223633;28;5884;-78
2023/08/01 10:19:27;;;;;;;;;;;;;;;25.91;45.83;96189.59;4223705;28;5535;-71
2023/08/01 10:21:31;;;;;;;;;;;;;;;25.92;45.49;96183.06;4226771;27;5720;-75
2023/08/01 10:23:35;;;;;;;;;;;;;;;25.92;45.35;96172.22;4232186;28;5646;-72
2023/08/01 10:25:40;;;;;;;;;;;;;;;25.94;45.14;96180.06;4233324;27;5664;-72
2023/08/01 10:27:43;;;;;;;;;;;;;;;25.94;44.80;96172.75;4227722;27;5128;-74
2023/08/01 10:29:57;;;;;;;;;;;;;;;25.95;45.13;96176.25;4230273;28;5728;-72
2023/08/01 10:32:00;;;;;;;;;;;;;;;25.94;44.77;96180.88;4222963;28;5819;-71
2023/08/01 10:34:08;;;;;;;;;;;;;;;25.94;44.69;96189.00;4229120;28;5822;-71
2023/08/01 10:36:15;;;;;;;;;;;;;;;25.95;44.43;96179.75;4221459;28;5780;-72
2023/08/01 10:38:18;;;;;;;;;;;;;;;25.96;44.53;96175.94;4222406;28;5725;-72
2023/08/01 10:40:21;;;;;;;;;;;;;;;25.98;44.46;96178.34;4223356;28;5905;-71
2023/08/01 10:42:25;;;;;;;;;;;;;;;26.00;44.47;96195.88;4232021;28;5646;-70
2023/08/01 10:44:30;;;;;;;;;;;;;;;26.02;44.61;96184.75;4230086;28;5638;-69
2023/08/01 10:46:46;;;;;;;;;;;;;;;26.04;44.51;96172.50;4224309;28;5694;-69
2023/08/01 10:48:51;;;;;;;;;;;;;;;26.06;44.51;96174.91;4230072;27;5900;-73
2023/08/01 10:50:56;;;;;;;;;;;;;;;26.08;44.63;96170.78;4235168;28;5655;-72
2023/08/01 10:53:04;;;;;;;;;;;;;;;26.08;44.38;96168.06;4229026;28;5661;-75